LNI1181 WAMM-WAEE
Flight info
| Callsign | LNI1181 |
|---|---|
| Flight time | 0h 40m |
| Altitude | 25000 |
| Route | SOSOK |
| Aircraft | B739/M-SDE2E3FGHIRWXY/LB1 |
Departure
| Time | 2026-04-21 07:44 |
|---|---|
| Airport | Sam Ratulangi International Airport (WAMM) |
Arrival
| Time | 2026-04-21 08:24 |
|---|---|
| Airport | Sultan Babullah Airport (WAEE) |
| Time | Latitude | Longitude | Altitude | Speed | Heading |
|---|---|---|---|---|---|
| 2026-04-21 07:01 | 1.54194 | 124.92344 | 335 ft | 0 kts | 272° |
| 2026-04-21 07:33 | 1.54193 | 124.92361 | 335 ft | 4 kts | 272° |
| 2026-04-21 07:34 | 1.54192 | 124.92384 | 331 ft | 4 kts | 269° |
| 2026-04-21 07:34 | 1.54198 | 124.92407 | 335 ft | 4 kts | 217° |
| 2026-04-21 07:34 | 1.54222 | 124.92415 | 335 ft | 3 kts | 182° |
| 2026-04-21 07:34 | 1.54227 | 124.92415 | 335 ft | 0 kts | 182° |
| 2026-04-21 07:38 | 1.54224 | 124.92415 | 335 ft | 3 kts | 182° |
| 2026-04-21 07:39 | 1.54187 | 124.92414 | 335 ft | 7 kts | 182° |
| 2026-04-21 07:39 | 1.54129 | 124.92412 | 332 ft | 9 kts | 182° |
| 2026-04-21 07:39 | 1.54066 | 124.92410 | 335 ft | 9 kts | 182° |
| 2026-04-21 07:39 | 1.54003 | 124.92413 | 335 ft | 9 kts | 163° |
| 2026-04-21 07:40 | 1.53945 | 124.92432 | 335 ft | 9 kts | 174° |
| 2026-04-21 07:40 | 1.53884 | 124.92432 | 332 ft | 9 kts | 180° |
| 2026-04-21 07:40 | 1.53825 | 124.92431 | 334 ft | 8 kts | 181° |
| 2026-04-21 07:40 | 1.53768 | 124.92435 | 332 ft | 8 kts | 159° |
| 2026-04-21 07:41 | 1.53744 | 124.92479 | 335 ft | 1 kts | 93° |
| 2026-04-21 07:41 | 1.53744 | 124.92489 | 331 ft | 5 kts | 93° |
| 2026-04-21 07:41 | 1.53742 | 124.92527 | 334 ft | 6 kts | 92° |
| 2026-04-21 07:42 | 1.53740 | 124.92579 | 335 ft | 8 kts | 87° |
| 2026-04-21 07:42 | 1.53754 | 124.92592 | 335 ft | 2 kts | 18° |
| 2026-04-21 07:42 | 1.53760 | 124.92592 | 335 ft | 0 kts | 1° |
| 2026-04-21 07:43 | 1.53847 | 124.92595 | 336 ft | 45 kts | 2° |
| 2026-04-21 07:43 | 1.54722 | 124.92624 | 334 ft | 139 kts | 2° |
| 2026-04-21 07:43 | 1.55851 | 124.92662 | 518 ft | 175 kts | 1° |
| 2026-04-21 07:44 | 1.56698 | 124.92668 | 925 ft | 187 kts | 1° |
| 2026-04-21 07:44 | 1.58419 | 124.92265 | 1797 ft | 202 kts | 343° |
| 2026-04-21 07:44 | 1.59820 | 124.91804 | 1992 ft | 225 kts | 347° |
| 2026-04-21 07:44 | 1.60869 | 124.91528 | 2194 ft | 233 kts | 348° |
| 2026-04-21 07:45 | 1.63027 | 124.91016 | 2713 ft | 254 kts | 350° |
| 2026-04-21 07:45 | 1.64199 | 124.90772 | 2985 ft | 262 kts | 350° |
| 2026-04-21 07:45 | 1.65957 | 124.90409 | 3911 ft | 251 kts | 350° |
| 2026-04-21 07:45 | 1.68173 | 124.90452 | 5007 ft | 241 kts | 25° |
| 2026-04-21 07:46 | 1.69188 | 124.90960 | 5504 ft | 241 kts | 31° |
| 2026-04-21 07:46 | 1.70688 | 124.91778 | 6099 ft | 249 kts | 30° |
| 2026-04-21 07:46 | 1.72249 | 124.92569 | 6699 ft | 254 kts | 27° |
| 2026-04-21 07:46 | 1.73823 | 124.93344 | 7302 ft | 258 kts | 28° |
| 2026-04-21 07:47 | 1.75443 | 124.94141 | 7913 ft | 262 kts | 27° |
| 2026-04-21 07:47 | 1.77096 | 124.94958 | 8512 ft | 267 kts | 27° |
| 2026-04-21 07:47 | 1.78770 | 124.95786 | 9227 ft | 268 kts | 28° |
| 2026-04-21 07:47 | 1.80210 | 124.96949 | 9794 ft | 271 kts | 59° |
| 2026-04-21 07:48 | 1.80771 | 124.98717 | 10200 ft | 280 kts | 89° |
| 2026-04-21 07:48 | 1.80412 | 125.00684 | 10370 ft | 300 kts | 113° |
| 2026-04-21 07:48 | 1.79267 | 125.02503 | 10530 ft | 320 kts | 131° |
| 2026-04-21 07:48 | 1.77507 | 125.03966 | 10675 ft | 339 kts | 148° |
| 2026-04-21 07:49 | 1.75426 | 125.05114 | 11124 ft | 347 kts | 153° |
| 2026-04-21 07:49 | 1.73273 | 125.06179 | 11668 ft | 350 kts | 154° |
| 2026-04-21 07:49 | 1.71042 | 125.07270 | 12255 ft | 353 kts | 153° |
| 2026-04-21 07:49 | 1.68860 | 125.08361 | 12833 ft | 355 kts | 153° |
| 2026-04-21 07:50 | 1.66650 | 125.09495 | 13386 ft | 358 kts | 152° |
| 2026-04-21 07:50 | 1.64433 | 125.10653 | 13922 ft | 360 kts | 152° |
| 2026-04-21 07:50 | 1.62214 | 125.11828 | 14436 ft | 362 kts | 152° |
| 2026-04-21 07:50 | 1.60002 | 125.13007 | 14862 ft | 366 kts | 152° |
| 2026-04-21 07:51 | 1.57748 | 125.14215 | 15333 ft | 368 kts | 152° |
| 2026-04-21 07:51 | 1.55478 | 125.15432 | 15778 ft | 371 kts | 151° |
| 2026-04-21 07:51 | 1.53192 | 125.16659 | 16226 ft | 374 kts | 151° |
| 2026-04-21 07:51 | 1.50888 | 125.17896 | 16657 ft | 377 kts | 151° |
| 2026-04-21 07:52 | 1.48567 | 125.19142 | 17098 ft | 380 kts | 152° |
| 2026-04-21 07:52 | 1.46219 | 125.20402 | 17529 ft | 383 kts | 152° |
| 2026-04-21 07:52 | 1.43887 | 125.21654 | 17942 ft | 386 kts | 152° |
| 2026-04-21 07:52 | 1.41506 | 125.22933 | 18319 ft | 390 kts | 152° |
| 2026-04-21 07:53 | 1.39116 | 125.24216 | 18700 ft | 391 kts | 151° |
| 2026-04-21 07:53 | 1.36714 | 125.25507 | 19071 ft | 393 kts | 151° |
| 2026-04-21 07:53 | 1.34294 | 125.26806 | 19424 ft | 395 kts | 151° |
| 2026-04-21 07:53 | 1.31862 | 125.28112 | 19786 ft | 397 kts | 150° |
| 2026-04-21 07:54 | 1.29432 | 125.29420 | 20185 ft | 398 kts | 151° |
| 2026-04-21 07:54 | 1.26976 | 125.30738 | 20481 ft | 402 kts | 151° |
| 2026-04-21 07:54 | 1.24501 | 125.32065 | 20828 ft | 403 kts | 150° |
| 2026-04-21 07:54 | 1.22066 | 125.33388 | 21227 ft | 403 kts | 147° |
| 2026-04-21 07:55 | 1.19886 | 125.35136 | 21498 ft | 403 kts | 131° |
| 2026-04-21 07:55 | 1.18239 | 125.37399 | 21803 ft | 403 kts | 117° |
| 2026-04-21 07:55 | 1.17149 | 125.39976 | 22160 ft | 402 kts | 109° |
| 2026-04-21 07:55 | 1.16220 | 125.42630 | 22483 ft | 404 kts | 108° |
| 2026-04-21 07:56 | 1.15312 | 125.45300 | 22780 ft | 406 kts | 108° |
| 2026-04-21 07:56 | 1.14403 | 125.47989 | 23086 ft | 409 kts | 108° |
| 2026-04-21 07:56 | 1.13487 | 125.50681 | 23437 ft | 409 kts | 108° |
| 2026-04-21 07:56 | 1.12570 | 125.53340 | 23721 ft | 410 kts | 108° |
| 2026-04-21 07:57 | 1.11630 | 125.56043 | 23944 ft | 411 kts | 108° |
| 2026-04-21 07:57 | 1.10712 | 125.58671 | 24150 ft | 413 kts | 108° |
| 2026-04-21 07:57 | 1.09788 | 125.61308 | 24369 ft | 415 kts | 108° |
| 2026-04-21 07:57 | 1.08829 | 125.64041 | 24618 ft | 417 kts | 108° |
| 2026-04-21 07:58 | 1.07879 | 125.66751 | 24818 ft | 419 kts | 108° |
| 2026-04-21 07:58 | 1.06906 | 125.69520 | 24804 ft | 424 kts | 108° |
| 2026-04-21 07:58 | 1.05923 | 125.72317 | 24822 ft | 428 kts | 108° |
| 2026-04-21 07:58 | 1.04931 | 125.75141 | 24827 ft | 431 kts | 108° |
| 2026-04-21 07:59 | 1.03943 | 125.77953 | 24828 ft | 435 kts | 109° |
| 2026-04-21 07:59 | 1.02934 | 125.80823 | 24823 ft | 438 kts | 109° |
| 2026-04-21 07:59 | 1.01924 | 125.83697 | 24822 ft | 440 kts | 109° |
| 2026-04-21 07:59 | 1.00900 | 125.86611 | 24822 ft | 443 kts | 109° |
| 2026-04-21 08:00 | 0.99886 | 125.89495 | 24821 ft | 445 kts | 108° |
| 2026-04-21 08:00 | 0.98857 | 125.92429 | 24821 ft | 447 kts | 109° |
| 2026-04-21 08:00 | 0.97824 | 125.95371 | 24819 ft | 449 kts | 109° |
| 2026-04-21 08:00 | 0.96785 | 125.98326 | 24820 ft | 450 kts | 109° |
| 2026-04-21 08:01 | 0.95743 | 126.01288 | 24816 ft | 452 kts | 109° |
| 2026-04-21 08:01 | 0.94699 | 126.04259 | 24820 ft | 452 kts | 109° |
| 2026-04-21 08:01 | 0.93654 | 126.07235 | 24816 ft | 453 kts | 109° |
| 2026-04-21 08:02 | 0.91571 | 126.13159 | 24816 ft | 453 kts | 108° |
| 2026-04-21 08:02 | 0.90528 | 126.16129 | 24816 ft | 453 kts | 109° |
| 2026-04-21 08:02 | 0.89480 | 126.19112 | 24815 ft | 453 kts | 109° |
| 2026-04-21 08:02 | 0.88436 | 126.22085 | 24813 ft | 453 kts | 109° |
| 2026-04-21 08:03 | 0.87402 | 126.25028 | 24819 ft | 452 kts | 109° |
| 2026-04-21 08:03 | 0.86357 | 126.28004 | 24816 ft | 451 kts | 109° |
| 2026-04-21 08:03 | 0.85328 | 126.30933 | 24815 ft | 451 kts | 109° |
| 2026-04-21 08:03 | 0.84290 | 126.33890 | 24815 ft | 450 kts | 109° |
| 2026-04-21 08:04 | 0.83254 | 126.36841 | 24816 ft | 449 kts | 109° |
| 2026-04-21 08:04 | 0.82219 | 126.39790 | 24815 ft | 449 kts | 109° |
| 2026-04-21 08:04 | 0.81186 | 126.42737 | 24816 ft | 448 kts | 109° |
| 2026-04-21 08:04 | 0.80150 | 126.45691 | 24560 ft | 452 kts | 109° |
| 2026-04-21 08:05 | 0.79107 | 126.48657 | 24032 ft | 450 kts | 109° |
| 2026-04-21 08:05 | 0.78052 | 126.51545 | 23541 ft | 445 kts | 113° |
| 2026-04-21 08:05 | 0.76421 | 126.54154 | 22973 ft | 442 kts | 130° |
| 2026-04-21 08:05 | 0.74270 | 126.56336 | 22443 ft | 437 kts | 134° |
| 2026-04-21 08:06 | 0.72088 | 126.58434 | 21885 ft | 433 kts | 135° |
| 2026-04-21 08:06 | 0.69961 | 126.60501 | 21359 ft | 428 kts | 134° |
| 2026-04-21 08:06 | 0.67854 | 126.62589 | 20826 ft | 422 kts | 134° |
| 2026-04-21 08:06 | 0.65793 | 126.64651 | 20335 ft | 416 kts | 134° |
| 2026-04-21 08:07 | 0.64001 | 126.66881 | 19813 ft | 409 kts | 117° |
| 2026-04-21 08:07 | 0.62971 | 126.69498 | 19451 ft | 401 kts | 103° |
| 2026-04-21 08:07 | 0.62378 | 126.72213 | 19093 ft | 398 kts | 101° |
| 2026-04-21 08:07 | 0.61873 | 126.74887 | 18804 ft | 393 kts | 100° |
| 2026-04-21 08:08 | 0.61378 | 126.77590 | 18483 ft | 397 kts | 100° |
| 2026-04-21 08:08 | 0.60872 | 126.80323 | 18093 ft | 399 kts | 100° |
| 2026-04-21 08:08 | 0.60357 | 126.83051 | 17625 ft | 397 kts | 101° |
| 2026-04-21 08:08 | 0.59837 | 126.85752 | 17183 ft | 394 kts | 101° |
| 2026-04-21 08:09 | 0.59318 | 126.88405 | 16776 ft | 391 kts | 101° |
| 2026-04-21 08:09 | 0.58795 | 126.91063 | 16399 ft | 387 kts | 101° |
| 2026-04-21 08:09 | 0.58275 | 126.93695 | 16006 ft | 384 kts | 101° |
| 2026-04-21 08:09 | 0.57759 | 126.96306 | 15629 ft | 380 kts | 101° |
| 2026-04-21 08:10 | 0.57247 | 126.98904 | 15249 ft | 378 kts | 101° |
| 2026-04-21 08:10 | 0.56736 | 127.01480 | 14883 ft | 375 kts | 101° |
| 2026-04-21 08:10 | 0.56238 | 127.04001 | 14494 ft | 373 kts | 101° |
| 2026-04-21 08:10 | 0.55736 | 127.06549 | 14084 ft | 373 kts | 101° |
| 2026-04-21 08:11 | 0.55236 | 127.09090 | 13684 ft | 371 kts | 100° |
| 2026-04-21 08:11 | 0.54739 | 127.11618 | 13234 ft | 368 kts | 100° |
| 2026-04-21 08:11 | 0.54249 | 127.14112 | 12783 ft | 363 kts | 100° |
| 2026-04-21 08:11 | 0.53766 | 127.16565 | 12446 ft | 355 kts | 101° |
| 2026-04-21 08:12 | 0.53298 | 127.18937 | 12123 ft | 348 kts | 101° |
| 2026-04-21 08:12 | 0.52831 | 127.21298 | 11802 ft | 342 kts | 101° |
| 2026-04-21 08:12 | 0.52373 | 127.23608 | 11484 ft | 336 kts | 101° |
| 2026-04-21 08:12 | 0.51920 | 127.25876 | 11201 ft | 329 kts | 101° |
| 2026-04-21 08:13 | 0.51477 | 127.28089 | 11008 ft | 320 kts | 101° |
| 2026-04-21 08:13 | 0.51051 | 127.30225 | 10947 ft | 307 kts | 101° |
| 2026-04-21 08:13 | 0.50644 | 127.32269 | 10925 ft | 292 kts | 101° |
| 2026-04-21 08:13 | 0.50259 | 127.34209 | 10911 ft | 276 kts | 101° |
| 2026-04-21 08:14 | 0.49892 | 127.36063 | 10839 ft | 274 kts | 101° |
| 2026-04-21 08:14 | 0.49522 | 127.37934 | 10536 ft | 272 kts | 101° |
| 2026-04-21 08:14 | 0.49159 | 127.39760 | 10238 ft | 264 kts | 101° |
| 2026-04-21 08:14 | 0.48804 | 127.41539 | 9945 ft | 258 kts | 101° |
| 2026-04-21 08:15 | 0.48462 | 127.43255 | 9645 ft | 252 kts | 101° |
| 2026-04-21 08:15 | 0.48271 | 127.44969 | 9301 ft | 248 kts | 81° |
| 2026-04-21 08:15 | 0.48896 | 127.46546 | 8997 ft | 244 kts | 56° |
| 2026-04-21 08:15 | 0.49967 | 127.47855 | 8677 ft | 244 kts | 48° |
| 2026-04-21 08:16 | 0.51131 | 127.49081 | 8379 ft | 242 kts | 47° |
| 2026-04-21 08:16 | 0.52284 | 127.50287 | 8092 ft | 237 kts | 47° |
| 2026-04-21 08:16 | 0.53403 | 127.51475 | 7767 ft | 233 kts | 47° |
| 2026-04-21 08:16 | 0.54497 | 127.52659 | 7464 ft | 230 kts | 48° |
| 2026-04-21 08:17 | 0.55578 | 127.53813 | 7180 ft | 225 kts | 47° |
| 2026-04-21 08:17 | 0.56637 | 127.54952 | 6884 ft | 222 kts | 47° |
| 2026-04-21 08:17 | 0.57666 | 127.56052 | 6624 ft | 216 kts | 50° |
| 2026-04-21 08:17 | 0.58831 | 127.56917 | 6303 ft | 210 kts | 12° |
| 2026-04-21 08:18 | 0.60239 | 127.56757 | 6059 ft | 202 kts | 343° |
| 2026-04-21 08:18 | 0.61461 | 127.56088 | 5704 ft | 200 kts | 320° |
| 2026-04-21 08:18 | 0.62444 | 127.55150 | 5426 ft | 192 kts | 319° |
| 2026-04-21 08:18 | 0.63391 | 127.54239 | 5115 ft | 188 kts | 319° |
| 2026-04-21 08:19 | 0.64326 | 127.53322 | 4875 ft | 189 kts | 319° |
| 2026-04-21 08:19 | 0.65316 | 127.52441 | 4633 ft | 193 kts | 323° |
| 2026-04-21 08:19 | 0.66378 | 127.51605 | 4370 ft | 194 kts | 324° |
| 2026-04-21 08:19 | 0.67423 | 127.50776 | 4101 ft | 190 kts | 323° |
| 2026-04-21 08:20 | 0.68448 | 127.49939 | 3870 ft | 189 kts | 324° |
| 2026-04-21 08:20 | 0.69473 | 127.49125 | 3658 ft | 187 kts | 324° |
| 2026-04-21 08:20 | 0.70480 | 127.48335 | 3419 ft | 186 kts | 323° |
| 2026-04-21 08:20 | 0.71501 | 127.47533 | 3158 ft | 182 kts | 323° |
| 2026-04-21 08:21 | 0.72480 | 127.46742 | 2882 ft | 179 kts | 323° |
| 2026-04-21 08:21 | 0.73450 | 127.45958 | 2633 ft | 178 kts | 322° |
| 2026-04-21 08:21 | 0.74396 | 127.45191 | 2344 ft | 175 kts | 322° |
| 2026-04-21 08:21 | 0.75338 | 127.44429 | 2067 ft | 173 kts | 321° |
| 2026-04-21 08:22 | 0.76267 | 127.43676 | 1838 ft | 170 kts | 321° |
| 2026-04-21 08:22 | 0.77180 | 127.42938 | 1536 ft | 165 kts | 321° |
| 2026-04-21 08:22 | 0.78047 | 127.42244 | 1279 ft | 155 kts | 321° |
| 2026-04-21 08:22 | 0.78894 | 127.41564 | 1063 ft | 155 kts | 321° |
| 2026-04-21 08:23 | 0.79712 | 127.40888 | 802 ft | 150 kts | 319° |
| 2026-04-21 08:23 | 0.80531 | 127.40229 | 567 ft | 152 kts | 324° |
| 2026-04-21 08:23 | 0.81365 | 127.39555 | 357 ft | 155 kts | 322° |
| 2026-04-21 08:23 | 0.82202 | 127.38890 | 152 ft | 153 kts | 322° |
| 2026-04-21 08:24 | 0.82994 | 127.38258 | 69 ft | 128 kts | 321° |
| 2026-04-21 08:24 | 0.83519 | 127.37839 | 85 ft | 65 kts | 321° |
| 2026-04-21 08:24 | 0.83746 | 127.37654 | 85 ft | 30 kts | 311° |
| 2026-04-21 08:24 | 0.83819 | 127.37584 | 85 ft | 10 kts | 27° |
| 2026-04-21 08:25 | 0.83800 | 127.37616 | 84 ft | 9 kts | 144° |
| 2026-04-21 08:25 | 0.83727 | 127.37672 | 87 ft | 18 kts | 142° |
| 2026-04-21 08:25 | 0.83613 | 127.37762 | 87 ft | 23 kts | 141° |
| 2026-04-21 08:25 | 0.83495 | 127.37858 | 87 ft | 17 kts | 145° |
| 2026-04-21 08:26 | 0.83412 | 127.37824 | 86 ft | 14 kts | 234° |
| 2026-04-21 08:26 | 0.83384 | 127.37756 | 84 ft | 6 kts | 234° |
| 2026-04-21 08:26 | 0.83369 | 127.37738 | 84 ft | 0 kts | 230° |